createdAt,value
2023-02-08T06:40:54.083Z,-7.60
2023-02-08T06:43:22.273Z,-7.59
2023-02-08T06:45:51.069Z,-7.60
2023-02-08T06:48:21.813Z,-7.60
2023-02-08T06:50:57.399Z,-7.60
2023-02-08T06:53:24.901Z,-7.58
2023-02-08T06:55:52.837Z,-7.56
2023-02-08T06:58:27.002Z,-7.50
2023-02-08T07:01:00.350Z,-7.45
2023-02-08T07:03:33.774Z,-7.44
2023-02-08T07:06:13.945Z,-7.48
2023-02-08T07:08:56.167Z,-7.49
2023-02-08T07:11:30.958Z,-7.44
2023-02-08T07:13:58.406Z,-7.36
2023-02-08T07:16:26.922Z,-7.27
2023-02-08T10:13:52.519Z,5.72
2023-02-08T10:17:13.574Z,5.99
2023-02-08T10:20:29.636Z,6.16
2023-02-08T10:23:40.564Z,6.07
2023-02-08T10:30:01.964Z,6.34
2023-02-08T10:33:35.380Z,6.50
2023-02-08T10:39:30.709Z,6.46
2023-02-08T10:42:04.473Z,6.22
2023-02-08T10:45:24.733Z,5.40
2023-02-08T10:48:06.206Z,4.43
2023-02-08T10:51:10.487Z,4.29
2023-02-08T10:53:51.290Z,4.49
2023-02-08T10:56:58.241Z,4.62
2023-02-08T10:59:35.257Z,4.77
2023-02-08T11:02:26.821Z,4.89
2023-02-08T11:05:47.340Z,4.93
2023-02-08T11:08:21.340Z,5.11
2023-02-08T11:11:11.661Z,5.25
2023-02-08T11:13:45.044Z,5.52
2023-02-08T11:16:21.995Z,5.61
2023-02-08T11:19:40.451Z,5.75
2023-02-08T11:22:17.829Z,5.97
2023-02-08T11:24:55.071Z,6.03
2023-02-08T11:27:53.184Z,5.96
2023-02-08T11:30:55.475Z,5.69
2023-02-08T11:33:39.089Z,5.50
2023-02-08T11:36:17.320Z,5.40
2023-02-08T11:38:50.540Z,5.43
2023-02-08T11:41:18.886Z,5.39
2023-02-08T11:44:15.793Z,5.43
2023-02-08T11:46:47.749Z,5.27
2023-02-08T11:49:42.586Z,5.50
2023-02-08T11:52:48.319Z,5.58
2023-02-08T11:55:36.810Z,5.57
2023-02-08T11:58:18.009Z,5.64
2023-02-08T12:01:08.446Z,5.81
2023-02-08T12:03:40.502Z,5.82
2023-02-08T12:06:52.475Z,5.67
2023-02-08T12:09:58.713Z,5.47
2023-02-08T12:13:00.638Z,5.16
2023-02-08T12:16:27.419Z,4.80
2023-02-08T12:19:24.341Z,4.02
2023-02-08T12:22:36.824Z,3.26
2023-02-08T12:29:50.918Z,1.89
2023-02-08T12:33:22.214Z,1.42
2023-02-08T12:36:56.621Z,1.00
2023-02-08T12:40:15.482Z,0.62
2023-02-08T12:43:24.383Z,0.23
2023-02-08T12:46:28.285Z,0.08
2023-02-08T12:49:54.857Z,-0.05
2023-02-08T12:52:50.771Z,-0.25
2023-02-08T12:55:42.758Z,-0.30
2023-02-08T12:59:01.780Z,-0.33
2023-02-08T13:01:59.308Z,-0.47
2023-02-08T13:04:56.406Z,-0.67
2023-02-08T13:07:52.296Z,-0.81
2023-02-08T13:10:32.154Z,-0.85
2023-02-08T13:13:33.094Z,-0.87
2023-02-08T13:16:11.191Z,-0.92
2023-02-08T13:19:21.412Z,-1.00
2023-02-08T13:21:54.211Z,-1.09
2023-02-08T13:24:43.347Z,-1.15
2023-02-08T13:27:29.341Z,-1.15
2023-02-08T13:30:21.257Z,-1.16
2023-02-08T13:32:56.274Z,-1.19
2023-02-08T13:35:46.078Z,-1.20
2023-02-08T13:38:53.003Z,-1.24
2023-02-08T13:41:40.925Z,-1.26
2023-02-08T13:44:36.705Z,-1.29
2023-02-08T13:47:34.258Z,-1.39
2023-02-08T13:50:37.182Z,-1.47
2023-02-08T13:53:22.837Z,-1.49
2023-02-08T13:56:05.647Z,-1.50
2023-02-08T13:59:03.555Z,-1.57
2023-02-08T14:01:40.620Z,-1.56
2023-02-08T14:04:37.550Z,-1.45
2023-02-08T14:07:38.879Z,-1.47
2023-02-08T14:10:34.637Z,-1.59
2023-02-08T14:13:30.821Z,-1.69
2023-02-08T14:16:49.703Z,-1.75
2023-02-08T14:19:30.956Z,-1.79
2023-02-08T14:22:13.795Z,-1.78
2023-02-08T14:26:15.457Z,-1.80
2023-02-08T14:29:24.037Z,-1.86
2023-02-08T14:32:16.608Z,-1.89
2023-02-08T14:35:26.870Z,-1.93
2023-02-08T14:38:43.467Z,-2.00
2023-02-08T14:42:02.770Z,-2.05
2023-02-08T14:45:07.515Z,-2.09
2023-02-08T14:48:30.258Z,-2.14
2023-02-08T14:51:19.802Z,-2.19
2023-02-08T14:54:21.213Z,-2.23
2023-02-08T14:57:43.620Z,-2.27
2023-02-08T15:00:34.072Z,-2.32
2023-02-08T15:03:07.925Z,-2.35
2023-02-08T15:06:18.289Z,-2.37
2023-02-08T15:09:03.570Z,-2.37
2023-02-08T15:12:11.523Z,-2.39
2023-02-08T15:14:57.695Z,-2.43
2023-02-08T15:17:48.122Z,-2.46
2023-02-08T15:24:59.929Z,-2.50
2023-02-08T15:27:34.484Z,-2.54
2023-02-08T15:30:21.021Z,-2.57
2023-02-08T15:32:53.697Z,-2.58
2023-02-08T15:35:23.913Z,-2.61
2023-02-08T15:37:58.967Z,-2.61
2023-02-08T15:44:03.245Z,-2.64
2023-02-08T15:46:32.388Z,-2.61
2023-02-08T15:49:01.111Z,-2.58
2023-02-08T15:52:08.342Z,-2.56
2023-02-08T15:54:38.267Z,-2.53
2023-02-08T15:57:36.193Z,-2.56
2023-02-08T16:00:41.272Z,-2.66
2023-02-08T16:03:27.512Z,-2.73
2023-02-08T16:06:12.776Z,-2.76
2023-02-08T16:08:53.542Z,-2.79
2023-02-08T16:11:31.115Z,-2.81
2023-02-08T16:14:50.670Z,-2.82
